sensor_id;sensor_type;location;lat;lon;timestamp;P1;durP1;ratioP1;P2;durP2;ratioP2
37091;SDS011;23005;51.998;4.502;2023-02-05T00:00:12;32.38;;;18.23;;
37091;SDS011;23005;51.998;4.502;2023-02-05T00:02:54;30.38;;;17.30;;
37091;SDS011;23005;51.998;4.502;2023-02-05T00:04:15;36.83;;;18.02;;
37091;SDS011;23005;51.998;4.502;2023-02-05T00:05:36;32.42;;;17.63;;
37091;SDS011;23005;51.998;4.502;2023-02-05T00:06:56;32.23;;;19.20;;
37091;SDS011;23005;51.998;4.502;2023-02-05T00:08:17;35.13;;;18.67;;
37091;SDS011;23005;51.998;4.502;2023-02-05T00:09:38;36.15;;;18.70;;
37091;SDS011;23005;51.998;4.502;2023-02-05T00:10:58;36.53;;;18.20;;
37091;SDS011;23005;51.998;4.502;2023-02-05T00:12:19;34.80;;;19.58;;
37091;SDS011;23005;51.998;4.502;2023-02-05T00:13:41;34.13;;;19.00;;
37091;SDS011;23005;51.998;4.502;2023-02-05T00:15:02;32.75;;;18.58;;
37091;SDS011;23005;51.998;4.502;2023-02-05T00:16:23;35.65;;;18.77;;
37091;SDS011;23005;51.998;4.502;2023-02-05T00:19:04;32.22;;;18.67;;
37091;SDS011;23005;51.998;4.502;2023-02-05T00:20:25;35.95;;;18.80;;
37091;SDS011;23005;51.998;4.502;2023-02-05T00:21:46;32.50;;;18.60;;
37091;SDS011;23005;51.998;4.502;2023-02-05T00:23:08;34.45;;;18.45;;
37091;SDS011;23005;51.998;4.502;2023-02-05T00:24:29;37.27;;;18.17;;
37091;SDS011;23005;51.998;4.502;2023-02-05T00:25:50;38.30;;;18.10;;
37091;SDS011;23005;51.998;4.502;2023-02-05T00:27:10;33.38;;;17.95;;
37091;SDS011;23005;51.998;4.502;2023-02-05T00:28:31;39.05;;;18.75;;
37091;SDS011;23005;51.998;4.502;2023-02-05T00:29:53;31.73;;;17.17;;
37091;SDS011;23005;51.998;4.502;2023-02-05T00:31:14;32.25;;;16.83;;
37091;SDS011;23005;51.998;4.502;2023-02-05T00:32:36;28.80;;;15.15;;
37091;SDS011;23005;51.998;4.502;2023-02-05T00:33:57;27.58;;;15.05;;
37091;SDS011;23005;51.998;4.502;2023-02-05T00:35:17;29.15;;;14.45;;
37091;SDS011;23005;51.998;4.502;2023-02-05T00:36:38;28.40;;;14.90;;
37091;SDS011;23005;51.998;4.502;2023-02-05T00:37:58;23.70;;;14.43;;
37091;SDS011;23005;51.998;4.502;2023-02-05T00:39:19;30.65;;;13.50;;
37091;SDS011;23005;51.998;4.502;2023-02-05T00:40:40;26.67;;;12.82;;
37091;SDS011;23005;51.998;4.502;2023-02-05T00:42:00;20.77;;;11.90;;
37091;SDS011;23005;51.998;4.502;2023-02-05T00:43:21;22.83;;;10.88;;
37091;SDS011;23005;51.998;4.502;2023-02-05T00:44:42;25.30;;;11.07;;
37091;SDS011;23005;51.998;4.502;2023-02-05T00:46:04;18.70;;;9.93;;
37091;SDS011;23005;51.998;4.502;2023-02-05T00:47:25;17.85;;;9.10;;
37091;SDS011;23005;51.998;4.502;2023-02-05T00:48:45;17.33;;;8.75;;
37091;SDS011;23005;51.998;4.502;2023-02-05T00:50:06;18.63;;;8.73;;
37091;SDS011;23005;51.998;4.502;2023-02-05T00:51:27;14.25;;;7.32;;
37091;SDS011;23005;51.998;4.502;2023-02-05T00:52:48;12.87;;;7.37;;
37091;SDS011;23005;51.998;4.502;2023-02-05T00:54:08;15.55;;;6.95;;
37091;SDS011;23005;51.998;4.502;2023-02-05T00:55:29;17.08;;;6.43;;
37091;SDS011;23005;51.998;4.502;2023-02-05T00:56:50;12.35;;;5.72;;
37091;SDS011;23005;51.998;4.502;2023-02-05T00:58:11;14.07;;;5.43;;
37091;SDS011;23005;51.998;4.502;2023-02-05T00:59:32;13.00;;;5.37;;
37091;SDS011;23005;51.998;4.502;2023-02-05T01:00:53;13.05;;;4.90;;
37091;SDS011;23005;51.998;4.502;2023-02-05T01:02:15;10.60;;;3.92;;
37091;SDS011;23005;51.998;4.502;2023-02-05T01:03:35;13.50;;;4.75;;
37091;SDS011;23005;51.998;4.502;2023-02-05T01:04:56;14.15;;;4.65;;
37091;SDS011;23005;51.998;4.502;2023-02-05T01:06:17;10.90;;;4.38;;
37091;SDS011;23005;51.998;4.502;2023-02-05T01:07:37;13.40;;;4.80;;
37091;SDS011;23005;51.998;4.502;2023-02-05T01:08:58;11.25;;;4.03;;
37091;SDS011;23005;51.998;4.502;2023-02-05T01:10:19;16.80;;;3.93;;
37091;SDS011;23005;51.998;4.502;2023-02-05T01:11:40;12.55;;;3.70;;
37091;SDS011;23005;51.998;4.502;2023-02-05T01:13:00;12.82;;;3.58;;
37091;SDS011;23005;51.998;4.502;2023-02-05T01:14:21;13.13;;;3.75;;
37091;SDS011;23005;51.998;4.502;2023-02-05T01:15:42;8.30;;;3.50;;
37091;SDS011;23005;51.998;4.502;2023-02-05T01:17:03;14.75;;;3.92;;
37091;SDS011;23005;51.998;4.502;2023-02-05T01:18:25;12.73;;;3.67;;
37091;SDS011;23005;51.998;4.502;2023-02-05T01:19:45;12.15;;;3.60;;
37091;SDS011;23005;51.998;4.502;2023-02-05T01:21:06;9.70;;;3.15;;
37091;SDS011;23005;51.998;4.502;2023-02-05T01:22:27;10.68;;;3.33;;
37091;SDS011;23005;51.998;4.502;2023-02-05T01:23:47;9.18;;;2.90;;
37091;SDS011;23005;51.998;4.502;2023-02-05T01:25:08;10.15;;;2.90;;
37091;SDS011;23005;51.998;4.502;2023-02-05T01:26:29;9.52;;;3.55;;
37091;SDS011;23005;51.998;4.502;2023-02-05T01:27:50;9.02;;;3.33;;
37091;SDS011;23005;51.998;4.502;2023-02-05T01:29:10;7.47;;;2.80;;
37091;SDS011;23005;51.998;4.502;2023-02-05T01:30:31;10.65;;;3.35;;
37091;SDS011;23005;51.998;4.502;2023-02-05T01:31:52;7.68;;;3.35;;
37091;SDS011;23005;51.998;4.502;2023-02-05T01:33:13;9.38;;;3.45;;
37091;SDS011;23005;51.998;4.502;2023-02-05T01:34:35;9.57;;;4.10;;
37091;SDS011;23005;51.998;4.502;2023-02-05T01:35:56;9.82;;;3.67;;
37091;SDS011;23005;51.998;4.502;2023-02-05T01:37:17;13.27;;;4.27;;
37091;SDS011;23005;51.998;4.502;2023-02-05T01:38:37;11.07;;;3.10;;
37091;SDS011;23005;51.998;4.502;2023-02-05T01:39:58;9.73;;;3.63;;
37091;SDS011;23005;51.998;4.502;2023-02-05T01:41:19;9.63;;;2.88;;
37091;SDS011;23005;51.998;4.502;2023-02-05T01:42:40;9.25;;;3.30;;
37091;SDS011;23005;51.998;4.502;2023-02-05T01:44:04;11.70;;;3.10;;
37091;SDS011;23005;51.998;4.502;2023-02-05T01:47:23;12.27;;;2.58;;
37091;SDS011;23005;51.998;4.502;2023-02-05T01:48:45;6.50;;;2.45;;
37091;SDS011;23005;51.998;4.502;2023-02-05T01:50:08;9.18;;;3.13;;
37091;SDS011;23005;51.998;4.502;2023-02-05T01:51:29;14.18;;;2.85;;
37091;SDS011;23005;51.998;4.502;2023-02-05T01:52:51;6.82;;;2.15;;
37091;SDS011;23005;51.998;4.502;2023-02-05T01:54:11;10.48;;;2.20;;
37091;SDS011;23005;51.998;4.502;2023-02-05T01:55:33;6.57;;;1.95;;
37091;SDS011;23005;51.998;4.502;2023-02-05T01:56:56;12.27;;;2.78;;
37091;SDS011;23005;51.998;4.502;2023-02-05T01:58:20;10.27;;;2.42;;
37091;SDS011;23005;51.998;4.502;2023-02-05T01:59:40;13.02;;;2.63;;
37091;SDS011;23005;51.998;4.502;2023-02-05T02:01:03;7.28;;;2.20;;
37091;SDS011;23005;51.998;4.502;2023-02-05T02:02:24;8.80;;;2.70;;
37091;SDS011;23005;51.998;4.502;2023-02-05T02:03:45;6.85;;;2.55;;
37091;SDS011;23005;51.998;4.502;2023-02-05T02:05:09;10.07;;;2.28;;
37091;SDS011;23005;51.998;4.502;2023-02-05T02:06:32;10.30;;;2.38;;
37091;SDS011;23005;51.998;4.502;2023-02-05T02:07:54;8.68;;;2.38;;
37091;SDS011;23005;51.998;4.502;2023-02-05T02:09:14;11.57;;;2.97;;
37091;SDS011;23005;51.998;4.502;2023-02-05T02:10:35;6.68;;;2.33;;
37091;SDS011;23005;51.998;4.502;2023-02-05T02:11:56;9.18;;;1.85;;
37091;SDS011;23005;51.998;4.502;2023-02-05T02:13:17;11.68;;;2.33;;
37091;SDS011;23005;51.998;4.502;2023-02-05T02:14:38;11.02;;;2.72;;
37091;SDS011;23005;51.998;4.502;2023-02-05T02:16:00;13.05;;;2.55;;
37091;SDS011;23005;51.998;4.502;2023-02-05T02:17:21;13.20;;;2.53;;
37091;SDS011;23005;51.998;4.502;2023-02-05T02:18:43;15.93;;;2.88;;
37091;SDS011;23005;51.998;4.502;2023-02-05T02:20:05;16.25;;;3.10;;
37091;SDS011;23005;51.998;4.502;2023-02-05T02:23:34;11.00;;;2.83;;
37091;SDS011;23005;51.998;4.502;2023-02-05T02:25:14;12.38;;;2.63;;
37091;SDS011;23005;51.998;4.502;2023-02-05T02:26:59;17.25;;;2.85;;
37091;SDS011;23005;51.998;4.502;2023-02-05T02:28:37;12.85;;;2.63;;
37091;SDS011;23005;51.998;4.502;2023-02-05T02:30:02;9.65;;;2.80;;
37091;SDS011;23005;51.998;4.502;2023-02-05T02:31:28;18.35;;;3.03;;
37091;SDS011;23005;51.998;4.502;2023-02-05T02:32:52;10.32;;;3.20;;
37091;SDS011;23005;51.998;4.502;2023-02-05T02:34:20;24.25;;;3.47;;
37091;SDS011;23005;51.998;4.502;2023-02-05T02:35:46;16.38;;;3.08;;
37091;SDS011;23005;51.998;4.502;2023-02-05T02:37:10;15.95;;;3.20;;
37091;SDS011;23005;51.998;4.502;2023-02-05T02:38:37;15.27;;;3.00;;
37091;SDS011;23005;51.998;4.502;2023-02-05T02:40:01;13.90;;;3.15;;
37091;SDS011;23005;51.998;4.502;2023-02-05T02:41:28;9.80;;;3.42;;
37091;SDS011;23005;51.998;4.502;2023-02-05T02:42:51;14.77;;;3.45;;
37091;SDS011;23005;51.998;4.502;2023-02-05T02:44:17;12.55;;;3.33;;
37091;SDS011;23005;51.998;4.502;2023-02-05T02:45:43;17.40;;;3.88;;
37091;SDS011;23005;51.998;4.502;2023-02-05T02:47:09;9.93;;;3.40;;
37091;SDS011;23005;51.998;4.502;2023-02-05T02:48:31;12.25;;;3.60;;
37091;SDS011;23005;51.998;4.502;2023-02-05T02:49:55;14.85;;;3.90;;
37091;SDS011;23005;51.998;4.502;2023-02-05T02:51:17;17.52;;;4.55;;
37091;SDS011;23005;51.998;4.502;2023-02-05T02:52:39;15.50;;;3.40;;
37091;SDS011;23005;51.998;4.502;2023-02-05T02:54:03;17.52;;;3.83;;
37091;SDS011;23005;51.998;4.502;2023-02-05T02:55:25;14.23;;;3.60;;
37091;SDS011;23005;51.998;4.502;2023-02-05T02:56:46;12.30;;;3.38;;
37091;SDS011;23005;51.998;4.502;2023-02-05T02:58:09;17.73;;;3.67;;
37091;SDS011;23005;51.998;4.502;2023-02-05T02:59:34;17.15;;;4.05;;
37091;SDS011;23005;51.998;4.502;2023-02-05T03:00:57;19.42;;;4.45;;
37091;SDS011;23005;51.998;4.502;2023-02-05T03:02:18;16.05;;;3.90;;
37091;SDS011;23005;51.998;4.502;2023-02-05T03:03:40;19.10;;;4.28;;
37091;SDS011;23005;51.998;4.502;2023-02-05T03:05:04;15.73;;;4.07;;
37091;SDS011;23005;51.998;4.502;2023-02-05T03:06:29;21.05;;;4.88;;
37091;SDS011;23005;51.998;4.502;2023-02-05T03:09:12;18.45;;;5.18;;
37091;SDS011;23005;51.998;4.502;2023-02-05T03:10:37;25.33;;;6.13;;
37091;SDS011;23005;51.998;4.502;2023-02-05T03:11:59;26.58;;;5.75;;
37091;SDS011;23005;51.998;4.502;2023-02-05T03:13:20;17.80;;;5.10;;
37091;SDS011;23005;51.998;4.502;2023-02-05T03:14:42;21.58;;;5.47;;
37091;SDS011;23005;51.998;4.502;2023-02-05T03:16:03;19.20;;;5.68;;
37091;SDS011;23005;51.998;4.502;2023-02-05T03:17:25;19.75;;;5.90;;
37091;SDS011;23005;51.998;4.502;2023-02-05T03:18:46;26.33;;;6.97;;
37091;SDS011;23005;51.998;4.502;2023-02-05T03:20:08;23.08;;;5.82;;
37091;SDS011;23005;51.998;4.502;2023-02-05T03:21:31;29.80;;;6.70;;
37091;SDS011;23005;51.998;4.502;2023-02-05T03:22:54;21.13;;;6.35;;
37091;SDS011;23005;51.998;4.502;2023-02-05T03:24:15;21.35;;;5.97;;
37091;SDS011;23005;51.998;4.502;2023-02-05T03:25:36;19.92;;;6.63;;
37091;SDS011;23005;51.998;4.502;2023-02-05T03:26:56;32.75;;;7.80;;
37091;SDS011;23005;51.998;4.502;2023-02-05T03:28:17;19.70;;;6.90;;
37091;SDS011;23005;51.998;4.502;2023-02-05T03:29:38;29.35;;;9.57;;
37091;SDS011;23005;51.998;4.502;2023-02-05T03:31:02;26.13;;;7.57;;
37091;SDS011;23005;51.998;4.502;2023-02-05T03:32:29;22.90;;;7.95;;
37091;SDS011;23005;51.998;4.502;2023-02-05T03:33:57;20.85;;;7.90;;
37091;SDS011;23005;51.998;4.502;2023-02-05T03:35:28;29.88;;;9.00;;
37091;SDS011;23005;51.998;4.502;2023-02-05T03:36:54;26.83;;;8.40;;
37091;SDS011;23005;51.998;4.502;2023-02-05T03:38:24;21.27;;;8.50;;
37091;SDS011;23005;51.998;4.502;2023-02-05T03:39:52;22.73;;;9.10;;
37091;SDS011;23005;51.998;4.502;2023-02-05T03:41:19;28.05;;;9.23;;
37091;SDS011;23005;51.998;4.502;2023-02-05T03:42:47;29.92;;;9.27;;
37091;SDS011;23005;51.998;4.502;2023-02-05T03:44:15;30.85;;;9.50;;
37091;SDS011;23005;51.998;4.502;2023-02-05T03:45:44;33.13;;;11.18;;
37091;SDS011;23005;51.998;4.502;2023-02-05T03:47:10;31.92;;;11.30;;
37091;SDS011;23005;51.998;4.502;2023-02-05T03:48:40;29.00;;;9.90;;
37091;SDS011;23005;51.998;4.502;2023-02-05T03:50:08;24.67;;;11.10;;
37091;SDS011;23005;51.998;4.502;2023-02-05T03:51:34;29.58;;;10.40;;
37091;SDS011;23005;51.998;4.502;2023-02-05T03:52:59;22.80;;;10.07;;
37091;SDS011;23005;51.998;4.502;2023-02-05T03:54:25;26.50;;;10.30;;
37091;SDS011;23005;51.998;4.502;2023-02-05T03:55:52;30.75;;;10.80;;
37091;SDS011;23005;51.998;4.502;2023-02-05T03:57:19;27.67;;;11.00;;
37091;SDS011;23005;51.998;4.502;2023-02-05T03:58:44;22.27;;;10.20;;
37091;SDS011;23005;51.998;4.502;2023-02-05T04:00:06;28.40;;;10.93;;
37091;SDS011;23005;51.998;4.502;2023-02-05T04:01:28;31.80;;;11.23;;
37091;SDS011;23005;51.998;4.502;2023-02-05T04:02:50;25.20;;;11.18;;
37091;SDS011;23005;51.998;4.502;2023-02-05T04:04:11;22.48;;;11.60;;
37091;SDS011;23005;51.998;4.502;2023-02-05T04:05:32;24.10;;;11.63;;
37091;SDS011;23005;51.998;4.502;2023-02-05T04:06:52;28.13;;;11.52;;
37091;SDS011;23005;51.998;4.502;2023-02-05T04:08:13;33.55;;;13.07;;
37091;SDS011;23005;51.998;4.502;2023-02-05T04:09:34;36.03;;;12.75;;
37091;SDS011;23005;51.998;4.502;2023-02-05T04:10:55;33.53;;;13.15;;
37091;SDS011;23005;51.998;4.502;2023-02-05T04:12:15;25.88;;;12.45;;
37091;SDS011;23005;51.998;4.502;2023-02-05T04:13:36;25.52;;;12.73;;
37091;SDS011;23005;51.998;4.502;2023-02-05T04:14:57;23.55;;;12.70;;
37091;SDS011;23005;51.998;4.502;2023-02-05T04:16:18;32.03;;;12.65;;
37091;SDS011;23005;51.998;4.502;2023-02-05T04:17:38;24.10;;;13.55;;
37091;SDS011;23005;51.998;4.502;2023-02-05T04:19:00;27.50;;;13.15;;
37091;SDS011;23005;51.998;4.502;2023-02-05T04:20:21;22.45;;;10.57;;
37091;SDS011;23005;51.998;4.502;2023-02-05T04:21:42;26.02;;;12.32;;
37091;SDS011;23005;51.998;4.502;2023-02-05T04:23:03;27.00;;;11.50;;
37091;SDS011;23005;51.998;4.502;2023-02-05T04:24:23;22.73;;;13.15;;
37091;SDS011;23005;51.998;4.502;2023-02-05T04:25:44;22.50;;;12.18;;
37091;SDS011;23005;51.998;4.502;2023-02-05T04:27:04;23.23;;;12.50;;
37091;SDS011;23005;51.998;4.502;2023-02-05T04:28:25;22.35;;;11.65;;
37091;SDS011;23005;51.998;4.502;2023-02-05T04:29:46;24.10;;;11.65;;
37091;SDS011;23005;51.998;4.502;2023-02-05T04:31:07;18.23;;;9.20;;
37091;SDS011;23005;51.998;4.502;2023-02-05T04:32:27;16.63;;;7.10;;
37091;SDS011;23005;51.998;4.502;2023-02-05T04:33:48;11.15;;;4.75;;
37091;SDS011;23005;51.998;4.502;2023-02-05T04:35:10;10.52;;;4.55;;
37091;SDS011;23005;51.998;4.502;2023-02-05T04:36:31;9.52;;;4.30;;
37091;SDS011;23005;51.998;4.502;2023-02-05T04:37:52;13.18;;;5.10;;
37091;SDS011;23005;51.998;4.502;2023-02-05T04:39:12;12.77;;;4.20;;
37091;SDS011;23005;51.998;4.502;2023-02-05T04:40:33;17.77;;;5.32;;
37091;SDS011;23005;51.998;4.502;2023-02-05T04:41:53;13.25;;;3.35;;
37091;SDS011;23005;51.998;4.502;2023-02-05T04:43:14;10.38;;;3.30;;
37091;SDS011;23005;51.998;4.502;2023-02-05T04:44:35;16.23;;;3.92;;
37091;SDS011;23005;51.998;4.502;2023-02-05T04:45:55;17.52;;;3.83;;
37091;SDS011;23005;51.998;4.502;2023-02-05T04:47:16;18.52;;;4.00;;
37091;SDS011;23005;51.998;4.502;2023-02-05T04:48:37;15.30;;;3.22;;
37091;SDS011;23005;51.998;4.502;2023-02-05T04:49:58;16.23;;;2.85;;
37091;SDS011;23005;51.998;4.502;2023-02-05T04:51:19;18.00;;;2.70;;
37091;SDS011;23005;51.998;4.502;2023-02-05T04:52:40;23.63;;;2.80;;
37091;SDS011;23005;51.998;4.502;2023-02-05T04:54:01;22.27;;;3.10;;
37091;SDS011;23005;51.998;4.502;2023-02-05T04:55:22;30.30;;;3.83;;
37091;SDS011;23005;51.998;4.502;2023-02-05T04:56:42;20.90;;;3.90;;
37091;SDS011;23005;51.998;4.502;2023-02-05T04:58:03;27.00;;;3.63;;
37091;SDS011;23005;51.998;4.502;2023-02-05T04:59:24;21.83;;;2.63;;
37091;SDS011;23005;51.998;4.502;2023-02-05T05:00:44;30.30;;;3.40;;
37091;SDS011;23005;51.998;4.502;2023-02-05T05:02:05;31.77;;;4.78;;
37091;SDS011;23005;51.998;4.502;2023-02-05T05:03:26;29.58;;;3.35;;
37091;SDS011;23005;51.998;4.502;2023-02-05T05:04:47;19.67;;;3.60;;
37091;SDS011;23005;51.998;4.502;2023-02-05T05:06:07;27.27;;;3.63;;
37091;SDS011;23005;51.998;4.502;2023-02-05T05:07:29;30.92;;;3.85;;
37091;SDS011;23005;51.998;4.502;2023-02-05T05:08:50;42.88;;;3.83;;
37091;SDS011;23005;51.998;4.502;2023-02-05T05:10:11;31.88;;;3.45;;
37091;SDS011;23005;51.998;4.502;2023-02-05T05:11:32;22.00;;;3.28;;
37091;SDS011;23005;51.998;4.502;2023-02-05T05:12:52;36.45;;;4.30;;
37091;SDS011;23005;51.998;4.502;2023-02-05T05:14:12;43.55;;;3.75;;
37091;SDS011;23005;51.998;4.502;2023-02-05T05:15:33;38.60;;;4.68;;
37091;SDS011;23005;51.998;4.502;2023-02-05T05:16:55;46.20;;;4.53;;
37091;SDS011;23005;51.998;4.502;2023-02-05T05:18:15;39.90;;;4.35;;
37091;SDS011;23005;51.998;4.502;2023-02-05T05:19:36;33.33;;;4.55;;
37091;SDS011;23005;51.998;4.502;2023-02-05T05:20:57;39.60;;;4.18;;
37091;SDS011;23005;51.998;4.502;2023-02-05T05:22:17;37.08;;;3.80;;
37091;SDS011;23005;51.998;4.502;2023-02-05T05:23:39;32.05;;;3.85;;
37091;SDS011;23005;51.998;4.502;2023-02-05T05:25:00;44.60;;;4.80;;
37091;SDS011;23005;51.998;4.502;2023-02-05T05:26:21;50.33;;;4.55;;
37091;SDS011;23005;51.998;4.502;2023-02-05T05:27:41;38.45;;;4.00;;
37091;SDS011;23005;51.998;4.502;2023-02-05T05:29:02;38.85;;;4.32;;
37091;SDS011;23005;51.998;4.502;2023-02-05T05:30:23;40.83;;;4.32;;
37091;SDS011;23005;51.998;4.502;2023-02-05T05:31:44;34.13;;;3.70;;
37091;SDS011;23005;51.998;4.502;2023-02-05T05:33:04;31.38;;;4.55;;
37091;SDS011;23005;51.998;4.502;2023-02-05T05:34:25;35.67;;;4.28;;
37091;SDS011;23005;51.998;4.502;2023-02-05T05:35:46;29.13;;;3.70;;
37091;SDS011;23005;51.998;4.502;2023-02-05T05:37:06;25.38;;;3.67;;
37091;SDS011;23005;51.998;4.502;2023-02-05T05:38:27;26.48;;;3.63;;
37091;SDS011;23005;51.998;4.502;2023-02-05T05:39:49;18.70;;;2.78;;
37091;SDS011;23005;51.998;4.502;2023-02-05T05:41:10;19.92;;;3.28;;
37091;SDS011;23005;51.998;4.502;2023-02-05T05:42:37;22.40;;;3.00;;
37091;SDS011;23005;51.998;4.502;2023-02-05T05:43:58;31.92;;;3.83;;
37091;SDS011;23005;51.998;4.502;2023-02-05T05:45:19;28.55;;;3.22;;
37091;SDS011;23005;51.998;4.502;2023-02-05T05:46:39;26.17;;;3.13;;
37091;SDS011;23005;51.998;4.502;2023-02-05T05:48:00;25.55;;;3.25;;
37091;SDS011;23005;51.998;4.502;2023-02-05T05:49:21;24.73;;;2.92;;
37091;SDS011;23005;51.998;4.502;2023-02-05T05:50:42;30.88;;;3.20;;
37091;SDS011;23005;51.998;4.502;2023-02-05T05:52:03;21.88;;;2.63;;
37091;SDS011;23005;51.998;4.502;2023-02-05T05:53:23;38.08;;;3.67;;
37091;SDS011;23005;51.998;4.502;2023-02-05T05:54:44;18.92;;;2.83;;
37091;SDS011;23005;51.998;4.502;2023-02-05T05:56:06;29.70;;;3.47;;
37091;SDS011;23005;51.998;4.502;2023-02-05T05:57:27;28.38;;;3.38;;
37091;SDS011;23005;51.998;4.502;2023-02-05T05:58:48;28.00;;;3.10;;
37091;SDS011;23005;51.998;4.502;2023-02-05T06:00:09;31.40;;;4.13;;
37091;SDS011;23005;51.998;4.502;2023-02-05T06:01:31;21.73;;;2.95;;
37091;SDS011;23005;51.998;4.502;2023-02-05T06:02:52;23.15;;;3.60;;
37091;SDS011;23005;51.998;4.502;2023-02-05T06:04:12;32.50;;;3.08;;
37091;SDS011;23005;51.998;4.502;2023-02-05T06:05:33;30.88;;;3.78;;
37091;SDS011;23005;51.998;4.502;2023-02-05T06:06:54;28.52;;;3.10;;
37091;SDS011;23005;51.998;4.502;2023-02-05T06:08:15;23.30;;;3.63;;
37091;SDS011;23005;51.998;4.502;2023-02-05T06:09:36;25.88;;;3.30;;
37091;SDS011;23005;51.998;4.502;2023-02-05T06:10:57;22.83;;;2.97;;
37091;SDS011;23005;51.998;4.502;2023-02-05T06:12:19;35.13;;;3.83;;
37091;SDS011;23005;51.998;4.502;2023-02-05T06:13:39;27.42;;;3.50;;
37091;SDS011;23005;51.998;4.502;2023-02-05T06:15:00;25.65;;;3.63;;
37091;SDS011;23005;51.998;4.502;2023-02-05T06:16:21;34.17;;;3.83;;
37091;SDS011;23005;51.998;4.502;2023-02-05T06:17:42;32.05;;;3.90;;
37091;SDS011;23005;51.998;4.502;2023-02-05T06:19:02;27.10;;;3.35;;
37091;SDS011;23005;51.998;4.502;2023-02-05T06:20:23;27.88;;;3.97;;
37091;SDS011;23005;51.998;4.502;2023-02-05T06:21:43;29.75;;;4.70;;
37091;SDS011;23005;51.998;4.502;2023-02-05T06:23:04;40.30;;;4.50;;
37091;SDS011;23005;51.998;4.502;2023-02-05T06:24:25;32.42;;;3.63;;
37091;SDS011;23005;51.998;4.502;2023-02-05T06:25:49;38.00;;;4.15;;
37091;SDS011;23005;51.998;4.502;2023-02-05T06:28:31;38.60;;;3.83;;
37091;SDS011;23005;51.998;4.502;2023-02-05T06:29:52;34.28;;;4.88;;
37091;SDS011;23005;51.998;4.502;2023-02-05T06:31:13;58.08;;;5.78;;
37091;SDS011;23005;51.998;4.502;2023-02-05T06:32:33;35.33;;;4.57;;
37091;SDS011;23005;51.998;4.502;2023-02-05T06:33:54;42.78;;;4.68;;
37091;SDS011;23005;51.998;4.502;2023-02-05T06:35:15;34.83;;;4.23;;
37091;SDS011;23005;51.998;4.502;2023-02-05T06:36:36;37.60;;;4.57;;
37091;SDS011;23005;51.998;4.502;2023-02-05T06:37:56;28.70;;;4.10;;
37091;SDS011;23005;51.998;4.502;2023-02-05T06:39:17;34.80;;;4.20;;
37091;SDS011;23005;51.998;4.502;2023-02-05T06:40:38;30.85;;;5.20;;
37091;SDS011;23005;51.998;4.502;2023-02-05T06:41:58;34.92;;;4.80;;
37091;SDS011;23005;51.998;4.502;2023-02-05T06:43:19;43.15;;;5.80;;
37091;SDS011;23005;51.998;4.502;2023-02-05T06:44:41;34.92;;;4.57;;
37091;SDS011;23005;51.998;4.502;2023-02-05T06:46:01;44.60;;;5.25;;
37091;SDS011;23005;51.998;4.502;2023-02-05T06:47:22;37.03;;;4.82;;
37091;SDS011;23005;51.998;4.502;2023-02-05T06:48:43;33.22;;;4.35;;
37091;SDS011;23005;51.998;4.502;2023-02-05T06:50:04;38.38;;;4.35;;
37091;SDS011;23005;51.998;4.502;2023-02-05T06:51:24;44.47;;;5.25;;
37091;SDS011;23005;51.998;4.502;2023-02-05T06:52:45;40.13;;;4.95;;
37091;SDS011;23005;51.998;4.502;2023-02-05T06:54:06;31.70;;;4.23;;
37091;SDS011;23005;51.998;4.502;2023-02-05T06:55:26;34.45;;;4.35;;
37091;SDS011;23005;51.998;4.502;2023-02-05T06:56:47;43.50;;;5.90;;
37091;SDS011;23005;51.998;4.502;2023-02-05T06:58:08;32.67;;;4.57;;
37091;SDS011;23005;51.998;4.502;2023-02-05T06:59:28;30.45;;;4.68;;
37091;SDS011;23005;51.998;4.502;2023-02-05T07:00:51;39.08;;;4.95;;
37091;SDS011;23005;51.998;4.502;2023-02-05T07:02:12;26.73;;;4.28;;
37091;SDS011;23005;51.998;4.502;2023-02-05T07:03:32;35.80;;;4.70;;
37091;SDS011;23005;51.998;4.502;2023-02-05T07:04:53;33.25;;;4.38;;
37091;SDS011;23005;51.998;4.502;2023-02-05T07:06:13;32.55;;;4.18;;
37091;SDS011;23005;51.998;4.502;2023-02-05T07:07:34;37.17;;;4.85;;
37091;SDS011;23005;51.998;4.502;2023-02-05T07:08:54;40.77;;;5.07;;
37091;SDS011;23005;51.998;4.502;2023-02-05T07:10:15;46.92;;;5.82;;
37091;SDS011;23005;51.998;4.502;2023-02-05T07:11:36;41.17;;;5.37;;
37091;SDS011;23005;51.998;4.502;2023-02-05T07:12:57;33.37;;;4.60;;
37091;SDS011;23005;51.998;4.502;2023-02-05T07:14:17;46.92;;;5.30;;
37091;SDS011;23005;51.998;4.502;2023-02-05T07:15:38;48.70;;;5.93;;
37091;SDS011;23005;51.998;4.502;2023-02-05T07:17:00;26.35;;;3.67;;
37091;SDS011;23005;51.998;4.502;2023-02-05T07:18:20;48.25;;;5.25;;
37091;SDS011;23005;51.998;4.502;2023-02-05T07:19:41;36.50;;;4.55;;
37091;SDS011;23005;51.998;4.502;2023-02-05T07:21:03;43.65;;;6.20;;
37091;SDS011;23005;51.998;4.502;2023-02-05T07:22:24;47.78;;;5.93;;
37091;SDS011;23005;51.998;4.502;2023-02-05T07:23:45;37.47;;;4.88;;
37091;SDS011;23005;51.998;4.502;2023-02-05T07:25:06;45.75;;;5.70;;
37091;SDS011;23005;51.998;4.502;2023-02-05T07:26:27;43.08;;;5.53;;
37091;SDS011;23005;51.998;4.502;2023-02-05T07:27:47;49.92;;;5.30;;
37091;SDS011;23005;51.998;4.502;2023-02-05T07:29:08;42.85;;;5.38;;
37091;SDS011;23005;51.998;4.502;2023-02-05T07:30:28;44.20;;;6.23;;
37091;SDS011;23005;51.998;4.502;2023-02-05T07:31:49;48.10;;;5.57;;
37091;SDS011;23005;51.998;4.502;2023-02-05T07:33:11;33.33;;;4.70;;
37091;SDS011;23005;51.998;4.502;2023-02-05T07:34:32;41.33;;;5.20;;
37091;SDS011;23005;51.998;4.502;2023-02-05T07:35:52;33.47;;;4.82;;
37091;SDS011;23005;51.998;4.502;2023-02-05T07:37:13;49.33;;;5.68;;
37091;SDS011;23005;51.998;4.502;2023-02-05T07:38:34;44.10;;;5.55;;
37091;SDS011;23005;51.998;4.502;2023-02-05T07:39:54;29.17;;;3.95;;
37091;SDS011;23005;51.998;4.502;2023-02-05T07:41:15;39.08;;;5.32;;
37091;SDS011;23005;51.998;4.502;2023-02-05T07:42:36;35.17;;;4.65;;
37091;SDS011;23005;51.998;4.502;2023-02-05T07:43:57;49.58;;;5.72;;
37091;SDS011;23005;51.998;4.502;2023-02-05T07:45:18;47.80;;;6.38;;
37091;SDS011;23005;51.998;4.502;2023-02-05T07:46:38;54.77;;;5.40;;
37091;SDS011;23005;51.998;4.502;2023-02-05T07:47:59;34.40;;;4.72;;
37091;SDS011;23005;51.998;4.502;2023-02-05T07:49:21;43.33;;;5.65;;
37091;SDS011;23005;51.998;4.502;2023-02-05T07:50:42;38.70;;;5.35;;
37091;SDS011;23005;51.998;4.502;2023-02-05T07:52:03;38.65;;;5.40;;
37091;SDS011;23005;51.998;4.502;2023-02-05T07:53:25;51.70;;;6.25;;
37091;SDS011;23005;51.998;4.502;2023-02-05T07:54:46;39.67;;;6.38;;
37091;SDS011;23005;51.998;4.502;2023-02-05T07:56:06;45.25;;;5.57;;
37091;SDS011;23005;51.998;4.502;2023-02-05T07:57:27;46.63;;;6.00;;
37091;SDS011;23005;51.998;4.502;2023-02-05T07:58:48;48.97;;;6.53;;
37091;SDS011;23005;51.998;4.502;2023-02-05T08:00:09;47.83;;;6.35;;
37091;SDS011;23005;51.998;4.502;2023-02-05T08:01:30;40.70;;;6.68;;
37091;SDS011;23005;51.998;4.502;2023-02-05T08:02:51;49.13;;;6.30;;
37091;SDS011;23005;51.998;4.502;2023-02-05T08:04:12;48.70;;;5.87;;
37091;SDS011;23005;51.998;4.502;2023-02-05T08:05:34;43.78;;;6.55;;
37091;SDS011;23005;51.998;4.502;2023-02-05T08:06:55;59.20;;;7.22;;
37091;SDS011;23005;51.998;4.502;2023-02-05T08:08:16;47.13;;;6.63;;
37091;SDS011;23005;51.998;4.502;2023-02-05T08:09:37;58.45;;;7.18;;
37091;SDS011;23005;51.998;4.502;2023-02-05T08:10:59;50.63;;;7.45;;
37091;SDS011;23005;51.998;4.502;2023-02-05T08:12:20;42.88;;;5.70;;
37091;SDS011;23005;51.998;4.502;2023-02-05T08:13:40;43.17;;;5.85;;